Time;durP1;ratioP1;P1;durP2;ratioP2;P2;SDS_P1;SDS_P2;PMS_P1;PMS_P2;Temp;Humidity;BMP_temperature;BMP_pressure;BME280_temperature;BME280_humidity;BME280_pressure;Samples;Min_cycle;Max_cycle;Signal;HPM_P1;HPM_P2
2022/05/18 00:00:27;;;;;;;18.30;17.40;;;;;;;;;;5036517;28;20403;-87
2022/05/18 00:02:55;;;;;;;18.73;17.83;;;;;;;;;;5036478;28;20495;-86
2022/05/18 00:05:23;;;;;;;18.30;17.40;;;;;;;;;;5036317;28;20442;-87
2022/05/18 00:07:50;;;;;;;18.00;17.10;;;;;;;;;;5036451;28;20491;-87
2022/05/18 00:10:18;;;;;;;19.57;18.57;;;;;;;;;;5036604;28;20455;-87
2022/05/18 00:12:46;;;;;;;18.57;17.67;;;;;;;;;;5036513;28;20460;-86
2022/05/18 00:15:14;;;;;;;18.53;17.63;;;;;;;;;;5034932;28;20498;-87
2022/05/18 00:17:43;;;;;;;18.50;17.60;;;;;;;;;;5036177;28;20492;-88
2022/05/18 00:20:11;;;;;;;18.80;17.80;;;;;;;;;;5036173;28;20491;-88
2022/05/18 00:22:44;;;;;;;18.43;17.43;;;;;;;;;;5036388;28;20430;-87
2022/05/18 00:25:12;;;;;;;19.37;18.23;;;;;;;;;;5036068;28;20418;-87
2022/05/18 00:27:39;;;;;;;19.63;18.63;;;;;;;;;;5035693;28;20574;-87
2022/05/18 00:30:07;;;;;;;19.70;18.60;;;;;;;;;;5035859;28;20433;-87
2022/05/18 00:32:34;;;;;;;18.40;17.50;;;;;;;;;;5036154;28;20451;-86
2022/05/18 00:35:04;;;;;;;19.50;18.60;;;;;;;;;;5035778;28;20419;-87
2022/05/18 00:37:31;;;;;;;19.43;18.20;;;;;;;;;;5035850;28;20411;-88
2022/05/18 00:39:59;;;;;;;18.20;17.30;;;;;;;;;;5035870;28;20808;-87
2022/05/18 00:42:27;;;;;;;18.83;17.83;;;;;;;;;;5035797;28;20440;-87
2022/05/18 00:44:55;;;;;;;18.43;17.53;;;;;;;;;;5035414;28;20448;-86
2022/05/18 00:47:23;;;;;;;19.27;18.27;;;;;;;;;;5035316;28;20471;-88
2022/05/18 00:49:52;;;;;;;18.53;17.63;;;;;;;;;;5034509;28;20792;-87
2022/05/18 00:52:22;;;;;;;19.23;17.87;;;;;;;;;;5035895;28;20574;-86
2022/05/18 00:54:50;;;;;;;18.73;17.70;;;;;;;;;;5035498;28;20423;-87
2022/05/18 00:57:19;;;;;;;18.90;17.90;;;;;;;;;;5035589;28;20423;-87
2022/05/18 00:59:48;;;;;;;18.63;17.73;;;;;;;;;;5035721;28;20468;-87
2022/05/18 01:02:16;;;;;;;18.60;17.70;;;;;;;;;;5035300;28;20414;-88
2022/05/18 01:04:44;;;;;;;19.27;18.27;;;;;;;;;;5035139;28;20437;-87
2022/05/18 01:07:14;;;;;;;19.53;18.43;;;;;;;;;;5035411;28;20490;-87
2022/05/18 01:09:43;;;;;;;18.47;17.57;;;;;;;;;;5035038;28;20482;-87
2022/05/18 01:12:13;;;;;;;18.70;17.50;;;;;;;;;;5034896;28;20437;-87
2022/05/18 01:14:43;;;;;;;18.87;17.97;;;;;;;;;;5035321;28;20438;-87
2022/05/18 01:17:11;;;;;;;18.50;17.50;;;;;;;;;;5035175;28;20800;-86
2022/05/18 01:19:40;;;;;;;18.60;17.60;;;;;;;;;;5018059;28;20456;-87
2022/05/18 01:22:11;;;;;;;18.50;17.60;;;;;;;;;;5034951;28;20535;-87
2022/05/18 01:24:42;;;;;;;19.77;18.40;;;;;;;;;;5034976;28;20402;-87
2022/05/18 01:27:11;;;;;;;18.37;17.47;;;;;;;;;;5035085;28;20458;-87
2022/05/18 01:29:38;;;;;;;18.43;17.50;;;;;;;;;;5034858;28;20447;-88
2022/05/18 01:32:07;;;;;;;18.67;17.67;;;;;;;;;;5035111;28;20449;-87
2022/05/18 01:34:41;;;;;;;18.43;17.47;;;;;;;;;;5034618;28;20433;-88
2022/05/18 01:37:09;;;;;;;18.87;17.97;;;;;;;;;;5034901;28;20443;-88
2022/05/18 01:39:38;;;;;;;17.90;16.90;;;;;;;;;;5034596;28;20411;-87
2022/05/18 01:42:11;;;;;;;18.20;17.10;;;;;;;;;;5034519;28;20423;-87
2022/05/18 01:44:41;;;;;;;18.37;17.43;;;;;;;;;;5033149;28;20480;-87
2022/05/18 01:47:09;;;;;;;18.47;17.50;;;;;;;;;;5034585;28;20499;-88
2022/05/18 01:49:37;;;;;;;19.27;18.17;;;;;;;;;;5034308;28;20443;-87
2022/05/18 01:52:05;;;;;;;19.20;18.20;;;;;;;;;;5034284;28;20431;-87
2022/05/18 01:54:37;;;;;;;18.67;17.67;;;;;;;;;;5034275;28;20440;-87
2022/05/18 01:57:04;;;;;;;18.20;17.20;;;;;;;;;;5034551;28;20468;-87
2022/05/18 01:59:32;;;;;;;18.70;17.70;;;;;;;;;;5034628;28;20430;-87
2022/05/18 02:02:01;;;;;;;18.87;17.83;;;;;;;;;;5033922;28;21306;-87
2022/05/18 02:04:31;;;;;;;18.33;17.43;;;;;;;;;;5034236;28;20437;-87
2022/05/18 02:06:59;;;;;;;18.80;17.77;;;;;;;;;;5033993;28;20493;-87
2022/05/18 02:09:27;;;;;;;18.90;17.90;;;;;;;;;;5034343;28;20472;-88
2022/05/18 02:11:55;;;;;;;17.70;16.90;;;;;;;;;;5033371;28;20418;-87
2022/05/18 02:14:22;;;;;;;19.30;18.30;;;;;;;;;;5034085;28;20821;-86
2022/05/18 02:16:50;;;;;;;18.20;17.30;;;;;;;;;;5034353;28;20423;-87
2022/05/18 02:19:19;;;;;;;18.97;17.97;;;;;;;;;;5034331;28;20800;-87
2022/05/18 02:21:46;;;;;;;18.50;17.53;;;;;;;;;;5033269;28;20473;-88
2022/05/18 02:24:14;;;;;;;18.70;17.70;;;;;;;;;;5034019;28;20415;-87
2022/05/18 02:26:41;;;;;;;19.70;18.37;;;;;;;;;;5034027;28;20804;-87
2022/05/18 02:29:09;;;;;;;19.10;18.20;;;;;;;;;;5033987;28;20416;-87
2022/05/18 02:31:36;;;;;;;18.90;17.90;;;;;;;;;;5033720;28;20419;-87
2022/05/18 02:34:03;;;;;;;19.73;18.63;;;;;;;;;;5033969;28;20423;-87
2022/05/18 02:36:32;;;;;;;18.83;17.90;;;;;;;;;;5033871;28;20497;-86
2022/05/18 02:39:00;;;;;;;18.60;17.70;;;;;;;;;;5032810;28;20502;-87
2022/05/18 02:41:27;;;;;;;19.50;18.50;;;;;;;;;;5033744;28;20436;-88
2022/05/18 02:43:55;;;;;;;19.70;18.53;;;;;;;;;;5033968;28;20391;-87
2022/05/18 02:46:23;;;;;;;19.23;18.13;;;;;;;;;;5033789;28;20583;-87
2022/05/18 02:48:52;;;;;;;19.37;18.30;;;;;;;;;;5033555;28;20456;-87
2022/05/18 02:51:19;;;;;;;18.70;17.70;;;;;;;;;;5033629;28;20459;-87
2022/05/18 02:53:48;;;;;;;18.90;18.00;;;;;;;;;;5033392;28;20411;-87
2022/05/18 02:56:16;;;;;;;20.43;19.33;;;;;;;;;;5033957;28;20415;-88
2022/05/18 02:58:47;;;;;;;19.27;18.23;;;;;;;;;;5033737;28;20414;-88
2022/05/18 03:01:16;;;;;;;18.53;17.63;;;;;;;;;;5033758;28;20462;-86
2022/05/18 03:03:44;;;;;;;19.40;18.30;;;;;;;;;;5033309;28;20490;-88
2022/05/18 03:06:12;;;;;;;19.60;18.60;;;;;;;;;;5033260;28;20467;-87
2022/05/18 03:08:42;;;;;;;19.03;18.03;;;;;;;;;;5033418;28;20487;-87
2022/05/18 03:11:11;;;;;;;18.87;17.87;;;;;;;;;;5033348;28;20432;-88
2022/05/18 03:13:38;;;;;;;18.87;17.83;;;;;;;;;;5035256;28;20419;-88
2022/05/18 03:16:06;;;;;;;19.60;18.60;;;;;;;;;;5037631;28;20465;-87
2022/05/18 03:18:34;;;;;;;19.20;18.30;;;;;;;;;;5037648;28;20422;-87
2022/05/18 03:23:47;;;;;;;18.67;17.77;;;;;;;;;;5037299;28;20435;-88
2022/05/18 03:26:17;;;;;;;20.03;18.83;;;;;;;;;;5037532;28;20436;-88
2022/05/18 03:28:45;;;;;;;19.67;18.67;;;;;;;;;;5037092;28;20476;-88
2022/05/18 03:31:12;;;;;;;19.63;18.63;;;;;;;;;;5037269;28;20440;-88
2022/05/18 03:33:40;;;;;;;18.83;17.87;;;;;;;;;;5037171;28;20807;-88
2022/05/18 03:36:09;;;;;;;19.50;18.50;;;;;;;;;;5037554;28;20494;-90
2022/05/18 03:38:36;;;;;;;19.37;18.37;;;;;;;;;;5037418;28;20479;-90
2022/05/18 03:41:04;;;;;;;19.80;18.77;;;;;;;;;;5037352;28;20826;-90
2022/05/18 03:43:33;;;;;;;19.80;18.80;;;;;;;;;;5036990;28;20447;-90
2022/05/18 03:46:00;;;;;;;19.93;18.70;;;;;;;;;;5037177;28;20431;-90
2022/05/18 03:48:28;;;;;;;19.80;18.70;;;;;;;;;;5036617;28;20459;-90
2022/05/18 03:50:57;;;;;;;19.70;18.60;;;;;;;;;;5019865;28;20419;-90
2022/05/18 03:53:24;;;;;;;19.80;18.80;;;;;;;;;;5037104;28;20473;-91
2022/05/18 03:55:52;;;;;;;18.90;17.80;;;;;;;;;;5036736;28;20906;-90
2022/05/18 03:58:20;;;;;;;19.70;18.70;;;;;;;;;;5036824;28;20440;-90
2022/05/18 04:00:50;;;;;;;20.97;19.87;;;;;;;;;;5036979;28;20468;-90
2022/05/18 04:03:20;;;;;;;18.37;17.57;;;;;;;;;;5036667;28;20432;-89
2022/05/18 04:05:49;;;;;;;18.87;17.97;;;;;;;;;;5036537;28;20425;-90
2022/05/18 04:08:17;;;;;;;18.93;18.03;;;;;;;;;;5036763;28;20491;-90
2022/05/18 04:10:44;;;;;;;20.83;19.53;;;;;;;;;;5019516;28;20415;-90
2022/05/18 04:13:13;;;;;;;20.03;18.87;;;;;;;;;;5036606;28;20460;-90
2022/05/18 04:15:41;;;;;;;20.60;19.50;;;;;;;;;;5037137;28;20442;-90
2022/05/18 04:18:10;;;;;;;19.73;18.73;;;;;;;;;;5036409;28;20514;-89
2022/05/18 04:20:38;;;;;;;19.73;18.73;;;;;;;;;;5036540;28;20485;-90
2022/05/18 04:23:06;;;;;;;20.87;19.67;;;;;;;;;;5036703;28;20457;-90
2022/05/18 04:25:34;;;;;;;19.83;18.83;;;;;;;;;;5035476;28;20426;-90
2022/05/18 04:28:01;;;;;;;20.43;19.17;;;;;;;;;;5036460;28;20491;-90
2022/05/18 04:30:29;;;;;;;20.93;19.57;;;;;;;;;;5036419;28;20506;-90
2022/05/18 04:32:58;;;;;;;19.90;18.80;;;;;;;;;;5036130;28;20414;-90
2022/05/18 04:35:27;;;;;;;20.67;19.63;;;;;;;;;;5036526;28;20491;-89
2022/05/18 04:37:55;;;;;;;21.23;20.10;;;;;;;;;;5036401;28;20415;-90
2022/05/18 04:40:22;;;;;;;20.80;19.60;;;;;;;;;;5036535;28;20460;-90
2022/05/18 04:42:49;;;;;;;20.40;19.20;;;;;;;;;;5036356;28;20730;-90
2022/05/18 04:45:18;;;;;;;20.70;19.60;;;;;;;;;;5036003;28;20423;-90
2022/05/18 04:47:45;;;;;;;20.17;18.93;;;;;;;;;;5035932;28;20485;-90
2022/05/18 04:50:13;;;;;;;20.87;19.60;;;;;;;;;;5035721;28;20903;-91
2022/05/18 04:52:42;;;;;;;21.50;20.00;;;;;;;;;;5036231;28;20415;-90
2022/05/18 04:55:10;;;;;;;21.53;20.40;;;;;;;;;;5036395;28;20468;-89
2022/05/18 04:57:38;;;;;;;22.17;20.87;;;;;;;;;;5036731;28;20436;-90
2022/05/18 05:00:10;;;;;;;20.60;19.57;;;;;;;;;;5035959;28;20439;-89
2022/05/18 05:02:38;;;;;;;21.43;20.33;;;;;;;;;;5035273;28;20440;-91
2022/05/18 05:05:07;;;;;;;21.63;20.53;;;;;;;;;;5035553;28;20411;-90
2022/05/18 05:07:34;;;;;;;21.63;20.43;;;;;;;;;;5035718;28;20579;-91
2022/05/18 05:10:03;;;;;;;21.40;20.30;;;;;;;;;;5034360;28;20466;-90
2022/05/18 05:12:31;;;;;;;20.67;19.67;;;;;;;;;;5035724;28;20415;-91
2022/05/18 05:14:58;;;;;;;20.50;19.40;;;;;;;;;;5035977;28;20444;-91
2022/05/18 05:17:26;;;;;;;20.37;19.30;;;;;;;;;;5035876;28;20414;-91
2022/05/18 05:19:53;;;;;;;20.83;19.83;;;;;;;;;;5035348;28;20495;-91
2022/05/18 05:22:21;;;;;;;21.03;20.03;;;;;;;;;;5035220;28;20876;-91
2022/05/18 05:24:48;;;;;;;20.60;19.50;;;;;;;;;;5034078;28;20418;-91
2022/05/18 05:27:17;;;;;;;20.63;19.63;;;;;;;;;;5033906;28;20575;-89
2022/05/18 05:29:44;;;;;;;21.50;20.20;;;;;;;;;;5035299;28;21199;-91
2022/05/18 05:32:12;;;;;;;20.30;19.20;;;;;;;;;;5035054;28;20832;-90
2022/05/18 05:34:40;;;;;;;21.37;20.07;;;;;;;;;;5033818;28;20427;-91
2022/05/18 05:37:07;;;;;;;22.23;20.73;;;;;;;;;;5034697;28;20432;-92
2022/05/18 05:39:35;;;;;;;19.93;18.90;;;;;;;;;;5035301;28;20426;-90
2022/05/18 05:42:02;;;;;;;20.77;19.57;;;;;;;;;;5034936;28;20452;-92
2022/05/18 05:44:31;;;;;;;20.03;18.93;;;;;;;;;;5035227;28;20411;-89
2022/05/18 05:47:03;;;;;;;20.00;18.93;;;;;;;;;;5034706;28;20453;-90
2022/05/18 05:49:30;;;;;;;20.97;19.87;;;;;;;;;;5035038;28;20467;-91
2022/05/18 05:51:58;;;;;;;20.50;19.40;;;;;;;;;;5034950;28;20426;-90
2022/05/18 05:54:26;;;;;;;20.87;19.60;;;;;;;;;;5033768;28;20451;-90
2022/05/18 05:56:54;;;;;;;20.00;19.00;;;;;;;;;;5034693;28;20443;-90
2022/05/18 05:59:21;;;;;;;20.20;19.20;;;;;;;;;;5034281;28;20415;-90
2022/05/18 06:01:50;;;;;;;20.73;19.63;;;;;;;;;;5034628;28;20968;-90
2022/05/18 06:04:18;;;;;;;21.23;20.13;;;;;;;;;;5034832;28;20436;-90
2022/05/18 06:06:46;;;;;;;20.70;19.50;;;;;;;;;;5034496;28;20472;-90
2022/05/18 06:09:13;;;;;;;19.50;18.50;;;;;;;;;;5033127;28;20538;-90
2022/05/18 06:11:41;;;;;;;21.37;20.07;;;;;;;;;;5034938;28;20507;-90
2022/05/18 06:14:08;;;;;;;21.57;20.47;;;;;;;;;;5034585;28;20410;-90
2022/05/18 06:16:36;;;;;;;20.23;19.20;;;;;;;;;;5034493;28;20407;-91
2022/05/18 06:19:04;;;;;;;19.73;18.73;;;;;;;;;;5034397;28;20414;-90
2022/05/18 06:21:32;;;;;;;20.43;19.33;;;;;;;;;;5034111;28;20484;-89
2022/05/18 06:23:59;;;;;;;21.43;20.30;;;;;;;;;;5034196;28;20892;-90
2022/05/18 06:26:27;;;;;;;22.07;20.90;;;;;;;;;;5034111;28;20915;-90
2022/05/18 06:28:54;;;;;;;22.33;21.13;;;;;;;;;;5034604;28;20458;-90
2022/05/18 06:31:22;;;;;;;23.03;21.73;;;;;;;;;;5034631;28;20823;-90
2022/05/18 06:33:50;;;;;;;21.77;20.57;;;;;;;;;;5032966;28;20490;-90
2022/05/18 06:36:19;;;;;;;21.33;20.20;;;;;;;;;;5034275;28;20490;-90
2022/05/18 06:38:46;;;;;;;21.67;20.43;;;;;;;;;;5034212;28;20432;-90
2022/05/18 06:41:23;;;;;;;22.10;21.00;;;;;;;;;;5034001;28;20444;-89
2022/05/18 06:43:51;;;;;;;22.10;20.90;;;;;;;;;;5034142;28;20467;-89
2022/05/18 06:46:18;;;;;;;22.40;21.10;;;;;;;;;;5034940;28;20475;-96
2022/05/18 06:48:46;;;;;;;21.90;20.43;;;;;;;;;;5036195;28;20446;-89
2022/05/18 06:51:13;;;;;;;21.33;20.23;;;;;;;;;;5038721;28;20506;-92
2022/05/18 06:53:42;;;;;;;22.90;21.63;;;;;;;;;;5038398;28;20419;-92
2022/05/18 06:56:10;;;;;;;21.70;20.60;;;;;;;;;;5039085;28;20432;-92
2022/05/18 06:58:37;;;;;;;22.17;20.93;;;;;;;;;;5039176;28;20414;-91
2022/05/18 07:01:07;;;;;;;22.20;20.93;;;;;;;;;;5040916;28;20436;-92
2022/05/18 07:03:34;;;;;;;21.73;20.53;;;;;;;;;;5040022;28;20443;-91
2022/05/18 07:06:02;;;;;;;22.30;20.90;;;;;;;;;;5040809;28;20472;-91
2022/05/18 07:08:30;;;;;;;21.30;20.00;;;;;;;;;;5042928;28;20529;-93
2022/05/18 07:10:58;;;;;;;22.10;21.00;;;;;;;;;;5040102;28;20448;-92
2022/05/18 07:13:26;;;;;;;21.93;20.53;;;;;;;;;;5045633;28;20440;-88
2022/05/18 07:15:53;;;;;;;21.93;20.63;;;;;;;;;;5049003;28;20436;-93
2022/05/18 07:18:21;;;;;;;22.70;21.40;;;;;;;;;;5048654;28;20447;-90
2022/05/18 07:20:49;;;;;;;22.43;21.23;;;;;;;;;;5051192;28;20484;-91
2022/05/18 07:23:16;;;;;;;21.77;20.53;;;;;;;;;;5049839;28;20451;-93
2022/05/18 07:25:43;;;;;;;22.27;21.07;;;;;;;;;;5054137;28;20407;-92
2022/05/18 07:28:12;;;;;;;22.30;21.10;;;;;;;;;;5040697;28;20479;-90
2022/05/18 07:30:40;;;;;;;22.07;20.90;;;;;;;;;;5039325;28;20456;-92
2022/05/18 07:33:08;;;;;;;22.77;21.30;;;;;;;;;;5041751;28;20439;-91
2022/05/18 07:35:35;;;;;;;22.40;21.00;;;;;;;;;;5042661;28;20471;-92
2022/05/18 07:38:03;;;;;;;22.43;21.27;;;;;;;;;;5044610;28;20441;-90
2022/05/18 07:40:30;;;;;;;23.33;22.03;;;;;;;;;;5042207;28;20472;-90
2022/05/18 07:46:03;;;;;;;22.80;21.20;;;;;;;;;;5041591;28;20442;-89
2022/05/18 07:48:30;;;;;;;22.13;20.73;;;;;;;;;;5041680;28;20980;-89
2022/05/18 07:50:58;;;;;;;22.67;21.47;;;;;;;;;;5039924;28;20509;-92
2022/05/18 07:53:26;;;;;;;22.67;21.53;;;;;;;;;;5040844;28;20455;-87
2022/05/18 07:55:54;;;;;;;23.20;22.00;;;;;;;;;;5042554;28;20436;-90
2022/05/18 07:58:22;;;;;;;22.77;21.67;;;;;;;;;;5037998;28;20468;-87
2022/05/18 08:00:50;;;;;;;24.23;22.73;;;;;;;;;;5030993;28;20781;-90
2022/05/18 08:03:19;;;;;;;23.97;22.57;;;;;;;;;;5017255;28;20408;-92
2022/05/18 08:05:47;;;;;;;23.03;21.53;;;;;;;;;;5017513;28;20415;-91
2022/05/18 08:08:15;;;;;;;23.87;22.57;;;;;;;;;;5017252;28;20551;-92
2022/05/18 08:16:12;;;;;;;24.10;22.67;;;;;;;;;;5019012;28;20439;-93
2022/05/18 08:18:41;;;;;;;23.57;22.20;;;;;;;;;;5018989;28;20436;-93
2022/05/18 08:21:09;;;;;;;23.10;21.80;;;;;;;;;;5018692;28;20476;-92
2022/05/18 08:23:37;;;;;;;23.73;22.40;;;;;;;;;;5018663;28;20436;-90
2022/05/18 08:26:04;;;;;;;23.83;22.33;;;;;;;;;;5019176;28;20424;-90
2022/05/18 08:28:32;;;;;;;24.03;22.57;;;;;;;;;;5018785;28;20619;-90
2022/05/18 08:30:59;;;;;;;23.17;21.87;;;;;;;;;;5001878;28;20514;-90
2022/05/18 08:33:28;;;;;;;22.60;21.20;;;;;;;;;;5016646;28;20443;-90
2022/05/18 08:35:57;;;;;;;23.50;22.00;;;;;;;;;;5016865;28;20444;-90
2022/05/18 08:38:24;;;;;;;22.70;21.40;;;;;;;;;;5016391;28;20445;-90
2022/05/18 08:40:53;;;;;;;21.97;20.77;;;;;;;;;;5016673;28;20444;-90
2022/05/18 08:43:24;;;;;;;22.80;21.40;;;;;;;;;;5016456;28;21018;-94
2022/05/18 08:45:53;;;;;;;23.03;21.70;;;;;;;;;;4999360;28;20469;-88
2022/05/18 08:48:27;;;;;;;23.90;22.40;;;;;;;;;;5027405;28;20452;-94
2022/05/18 08:50:56;;;;;;;23.17;21.83;;;;;;;;;;5037079;28;20531;-93
2022/05/18 08:53:32;;;;;;;22.50;21.00;;;;;;;;;;5035652;28;20440;-89
2022/05/18 08:56:03;;;;;;;22.17;20.87;;;;;;;;;;5036476;28;20436;-90
2022/05/18 08:58:35;;;;;;;22.27;21.07;;;;;;;;;;5037982;28;20531;-93
2022/05/18 09:01:05;;;;;;;24.27;22.97;;;;;;;;;;5041283;28;20440;-94
2022/05/18 09:03:34;;;;;;;23.17;21.80;;;;;;;;;;5039676;28;20448;-85
2022/05/18 09:06:02;;;;;;;22.77;21.37;;;;;;;;;;5039205;28;20422;-83
2022/05/18 09:08:33;;;;;;;23.50;22.13;;;;;;;;;;5036183;28;20440;-82
2022/05/18 09:11:03;;;;;;;24.03;22.63;;;;;;;;;;5035437;28;20475;-82
2022/05/18 09:13:31;;;;;;;23.87;22.63;;;;;;;;;;5035867;28;20440;-83
2022/05/18 09:16:02;;;;;;;23.47;22.17;;;;;;;;;;5037609;28;20411;-84
2022/05/18 09:18:33;;;;;;;22.57;21.37;;;;;;;;;;5037370;28;20435;-86
2022/05/18 09:21:03;;;;;;;23.43;22.13;;;;;;;;;;5045162;28;20473;-94
2022/05/18 09:23:40;;;;;;;23.50;22.20;;;;;;;;;;5056080;28;20895;-92
2022/05/18 09:26:17;;;;;;;24.37;22.87;;;;;;;;;;5055060;28;20426;-90
2022/05/18 09:28:52;;;;;;;23.33;21.60;;;;;;;;;;5056301;28;20425;-91
2022/05/18 09:31:29;;;;;;;23.93;22.63;;;;;;;;;;5059035;28;20486;-92
2022/05/18 09:34:03;;;;;;;24.37;22.97;;;;;;;;;;5057165;28;20523;-92
2022/05/18 09:36:38;;;;;;;22.60;21.30;;;;;;;;;;5056245;28;20422;-92
2022/05/18 09:39:09;;;;;;;23.50;22.10;;;;;;;;;;5037957;28;20513;-92
2022/05/18 09:41:37;;;;;;;23.40;22.10;;;;;;;;;;5055569;28;20425;-92
2022/05/18 09:44:10;;;;;;;22.37;21.07;;;;;;;;;;5055333;28;20454;-91
2022/05/18 09:46:39;;;;;;;22.23;21.03;;;;;;;;;;5054203;28;20890;-90
2022/05/18 09:49:12;;;;;;;22.97;21.67;;;;;;;;;;5054149;28;20486;-89
2022/05/18 09:51:39;;;;;;;23.60;22.00;;;;;;;;;;5054347;28;20413;-88
2022/05/18 09:54:09;;;;;;;23.13;21.73;;;;;;;;;;5054942;28;20418;-88
2022/05/18 09:56:38;;;;;;;23.43;22.03;;;;;;;;;;5036630;28;20833;-88
2022/05/18 09:59:09;;;;;;;24.27;22.97;;;;;;;;;;5054256;28;20423;-89
2022/05/18 10:10:01;;;;;;;24.43;23.03;;;;;;;;;;5054387;28;20476;-93
2022/05/18 10:12:32;;;;;;;23.90;22.60;;;;;;;;;;5054389;28;20443;-90
2022/05/18 10:15:02;;;;;;;24.70;23.30;;;;;;;;;;5054572;28;20443;-89
2022/05/18 10:17:32;;;;;;;24.83;23.43;;;;;;;;;;5054638;28;20446;-93
2022/05/18 10:20:01;;;;;;;25.37;23.70;;;;;;;;;;5054679;28;20444;-92
2022/05/18 10:22:31;;;;;;;25.53;24.00;;;;;;;;;;5053753;28;20477;-91
2022/05/18 10:25:08;;;;;;;24.77;23.43;;;;;;;;;;5054099;28;20463;-91
2022/05/18 10:27:37;;;;;;;25.43;23.93;;;;;;;;;;5054243;28;20497;-91
2022/05/18 10:30:10;;;;;;;24.40;23.00;;;;;;;;;;5054088;28;20495;-90
2022/05/18 10:32:38;;;;;;;24.50;23.10;;;;;;;;;;5054191;28;20439;-91
2022/05/18 10:35:06;;;;;;;24.73;23.33;;;;;;;;;;5054040;28;20458;-91
2022/05/18 10:37:35;;;;;;;23.87;22.53;;;;;;;;;;5053973;28;20431;-91
2022/05/18 10:40:04;;;;;;;24.13;22.53;;;;;;;;;;5036380;28;20421;-91
2022/05/18 10:42:41;;;;;;;23.83;22.43;;;;;;;;;;5053727;28;20455;-90
2022/05/18 10:45:29;;;;;;;25.10;23.60;;;;;;;;;;5054309;28;20921;-92
2022/05/18 10:47:58;;;;;;;25.43;23.93;;;;;;;;;;5053956;28;20437;-91
2022/05/18 10:50:28;;;;;;;25.83;24.33;;;;;;;;;;5054028;28;20506;-90
2022/05/18 10:52:59;;;;;;;25.30;23.87;;;;;;;;;;5054050;28;20414;-90
2022/05/18 10:55:29;;;;;;;24.90;23.43;;;;;;;;;;5054261;28;20440;-91
2022/05/18 10:58:00;;;;;;;24.67;23.37;;;;;;;;;;5054740;28;20861;-95
2022/05/18 11:00:30;;;;;;;24.63;23.27;;;;;;;;;;5054544;28;20425;-90
2022/05/18 11:03:01;;;;;;;23.33;22.13;;;;;;;;;;5057609;28;20459;-93
2022/05/18 11:05:40;;;;;;;24.57;23.27;;;;;;;;;;5054744;28;20497;-95
2022/05/18 11:08:11;;;;;;;23.57;22.37;;;;;;;;;;5056800;28;20421;-94
2022/05/18 11:10:42;;;;;;;24.80;23.40;;;;;;;;;;5054256;28;20979;-95
2022/05/18 11:13:15;;;;;;;23.80;22.50;;;;;;;;;;5054051;28;20463;-90
2022/05/18 11:15:45;;;;;;;23.97;22.67;;;;;;;;;;5035586;28;20450;-90
2022/05/18 11:18:16;;;;;;;24.23;22.83;;;;;;;;;;5053703;28;20436;-92
2022/05/18 11:20:48;;;;;;;25.80;24.13;;;;;;;;;;5053865;28;20558;-93
2022/05/18 11:23:22;;;;;;;26.00;24.50;;;;;;;;;;5054838;28;20514;-92
2022/05/18 11:25:55;;;;;;;25.17;23.67;;;;;;;;;;5036333;28;20443;-93
2022/05/18 11:28:27;;;;;;;23.73;22.33;;;;;;;;;;5055575;28;20431;-93
2022/05/18 11:31:03;;;;;;;23.67;22.37;;;;;;;;;;5054793;28;20514;-93
2022/05/18 11:33:33;;;;;;;24.47;22.97;;;;;;;;;;5053665;28;20458;-92
2022/05/18 11:36:05;;;;;;;24.97;23.57;;;;;;;;;;5057411;28;20525;-94
2022/05/18 11:38:45;;;;;;;23.60;22.20;;;;;;;;;;5057282;28;20461;-94
2022/05/18 11:41:30;;;;;;;22.90;21.50;;;;;;;;;;5040227;28;20482;-90
2022/05/18 11:44:01;;;;;;;23.60;22.33;;;;;;;;;;5057513;28;20851;-93
2022/05/18 11:46:48;;;;;;;23.13;21.90;;;;;;;;;;5039362;28;20524;-94
2022/05/18 11:49:18;;;;;;;22.47;21.17;;;;;;;;;;5057116;28;20438;-93
2022/05/18 11:51:52;;;;;;;23.47;21.87;;;;;;;;;;5057297;28;20443;-93
2022/05/18 11:54:25;;;;;;;23.40;22.10;;;;;;;;;;5057261;28;21169;-92
2022/05/18 11:56:55;;;;;;;23.77;22.37;;;;;;;;;;5056855;28;20485;-92
2022/05/18 11:59:52;;;;;;;24.30;22.90;;;;;;;;;;5057388;28;20842;-93
2022/05/18 12:02:34;;;;;;;23.30;21.90;;;;;;;;;;5055739;28;20463;-93
2022/05/18 12:05:25;;;;;;;24.30;22.80;;;;;;;;;;5013843;28;20451;-93
2022/05/18 12:08:24;;;;;;;25.17;23.77;;;;;;;;;;5036920;28;21010;-94
2022/05/18 12:10:54;;;;;;;24.97;23.50;;;;;;;;;;5059110;28;21066;-93
2022/05/18 12:13:27;;;;;;;23.97;22.57;;;;;;;;;;5057020;28;20449;-93
2022/05/18 12:15:58;;;;;;;24.63;23.23;;;;;;;;;;5057824;28;20435;-94
2022/05/18 12:18:31;;;;;;;24.03;22.63;;;;;;;;;;5062249;28;20501;-93
2022/05/18 12:21:00;;;;;;;24.77;23.17;;;;;;;;;;5057096;28;20756;-93
2022/05/18 12:23:29;;;;;;;24.27;22.77;;;;;;;;;;5056295;28;20436;-93
2022/05/18 12:25:58;;;;;;;26.10;24.40;;;;;;;;;;5056694;28;20444;-93
2022/05/18 12:28:26;;;;;;;25.57;23.97;;;;;;;;;;5057321;28;20421;-92
2022/05/18 12:30:54;;;;;;;24.60;23.10;;;;;;;;;;5056120;28;20469;-94
2022/05/18 12:33:21;;;;;;;25.20;23.70;;;;;;;;;;5056618;28;20439;-93
2022/05/18 12:35:52;;;;;;;25.13;23.73;;;;;;;;;;5058883;28;20447;-92
2022/05/18 12:38:24;;;;;;;24.97;23.57;;;;;;;;;;5038776;28;20459;-91
2022/05/18 12:40:53;;;;;;;25.20;23.80;;;;;;;;;;5056655;28;20410;-95
2022/05/18 12:43:26;;;;;;;24.93;23.53;;;;;;;;;;5056729;28;20431;-95
2022/05/18 12:45:57;;;;;;;23.97;22.57;;;;;;;;;;5056076;28;20463;-92
2022/05/18 12:48:35;;;;;;;25.10;23.60;;;;;;;;;;5057280;28;20447;-91
2022/05/18 12:51:06;;;;;;;25.57;24.07;;;;;;;;;;5059963;28;20479;-92
2022/05/18 12:53:41;;;;;;;24.23;22.73;;;;;;;;;;5040092;28;20447;-91
2022/05/18 12:56:16;;;;;;;25.20;23.70;;;;;;;;;;5058429;28;20863;-90
2022/05/18 12:58:47;;;;;;;24.67;23.27;;;;;;;;;;5039792;28;20425;-89
2022/05/18 13:01:17;;;;;;;26.00;24.37;;;;;;;;;;5061131;28;20448;-91
2022/05/18 13:03:47;;;;;;;24.67;23.17;;;;;;;;;;5057997;28;20443;-90
2022/05/18 13:06:16;;;;;;;24.80;23.40;;;;;;;;;;5058326;28;20443;-91
2022/05/18 13:09:01;;;;;;;24.97;23.57;;;;;;;;;;5058481;28;20446;-90
2022/05/18 13:11:40;;;;;;;23.53;22.20;;;;;;;;;;5055946;28;21057;-90
2022/05/18 13:14:21;;;;;;;24.47;22.90;;;;;;;;;;5057951;28;20444;-90
2022/05/18 13:17:05;;;;;;;24.43;22.97;;;;;;;;;;5056575;28;20566;-90
2022/05/18 13:19:33;;;;;;;24.87;23.27;;;;;;;;;;5055960;28;20418;-90
2022/05/18 13:22:02;;;;;;;24.10;22.60;;;;;;;;;;5054593;28;20522;-91
2022/05/18 13:24:33;;;;;;;23.47;22.10;;;;;;;;;;5055432;28;20439;-91
2022/05/18 13:27:05;;;;;;;23.60;22.10;;;;;;;;;;5054833;28;20447;-90
2022/05/18 13:29:36;;;;;;;23.80;22.33;;;;;;;;;;5054894;28;20893;-90
2022/05/18 13:32:07;;;;;;;24.50;23.00;;;;;;;;;;5037465;28;21068;-90
2022/05/18 13:34:40;;;;;;;24.60;23.20;;;;;;;;;;5058396;28;20455;-90
2022/05/18 13:37:08;;;;;;;24.50;23.10;;;;;;;;;;5061376;28;20764;-90
2022/05/18 13:39:37;;;;;;;25.03;23.63;;;;;;;;;;5054815;28;20475;-90
2022/05/18 13:42:07;;;;;;;26.33;24.57;;;;;;;;;;5055124;28;20422;-90
2022/05/18 13:44:36;;;;;;;25.40;23.70;;;;;;;;;;5037789;28;20422;-89
2022/05/18 13:47:03;;;;;;;25.20;23.63;;;;;;;;;;5054854;28;20475;-90
2022/05/18 13:49:32;;;;;;;24.83;23.43;;;;;;;;;;5056760;28;20447;-89
2022/05/18 13:52:06;;;;;;;25.03;23.50;;;;;;;;;;5053962;28;20497;-90
2022/05/18 13:54:36;;;;;;;24.83;23.43;;;;;;;;;;5036273;28;20425;-90
2022/05/18 13:57:06;;;;;;;25.00;23.53;;;;;;;;;;5036496;28;20439;-90
2022/05/18 13:59:34;;;;;;;25.10;23.60;;;;;;;;;;5033303;28;20411;-90
2022/05/18 14:02:05;;;;;;;24.10;22.70;;;;;;;;;;5016561;28;20415;-91
2022/05/18 14:04:35;;;;;;;24.23;22.73;;;;;;;;;;5034402;28;20407;-91
2022/05/18 14:07:03;;;;;;;25.20;23.70;;;;;;;;;;5035417;28;20411;-91
2022/05/18 14:09:33;;;;;;;24.53;23.07;;;;;;;;;;5034288;28;20468;-91
2022/05/18 14:12:00;;;;;;;24.70;23.13;;;;;;;;;;5016556;28;20534;-92
2022/05/18 14:14:31;;;;;;;23.57;22.10;;;;;;;;;;5016790;28;20444;-92
2022/05/18 14:17:01;;;;;;;24.00;22.50;;;;;;;;;;5033878;28;20941;-93
2022/05/18 14:19:37;;;;;;;25.00;23.40;;;;;;;;;;5034094;28;20481;-91
2022/05/18 14:22:06;;;;;;;23.47;22.13;;;;;;;;;;4984353;28;1452154;-92
2022/05/18 14:24:37;;;;;;;24.17;22.77;;;;;;;;;;5035101;28;20193;-92
2022/05/18 14:27:06;;;;;;;24.20;22.80;;;;;;;;;;5035194;28;20440;-90
2022/05/18 14:29:37;;;;;;;24.57;23.07;;;;;;;;;;5037353;28;20447;-90
2022/05/18 14:32:07;;;;;;;24.83;23.33;;;;;;;;;;5036407;28;20480;-90
2022/05/18 14:34:37;;;;;;;25.33;23.83;;;;;;;;;;5036696;28;20464;-90
2022/05/18 14:37:11;;;;;;;25.53;23.93;;;;;;;;;;5034598;28;20463;-90
2022/05/18 14:39:40;;;;;;;24.50;23.00;;;;;;;;;;5034357;28;20447;-90
2022/05/18 14:42:08;;;;;;;24.67;23.27;;;;;;;;;;5034485;28;20483;-89
2022/05/18 14:44:50;;;;;;;24.03;22.63;;;;;;;;;;5016675;28;20422;-89
2022/05/18 14:47:18;;;;;;;25.73;24.03;;;;;;;;;;5034824;28;20448;-91
2022/05/18 14:49:47;;;;;;;24.33;22.80;;;;;;;;;;5034444;28;20440;-91